WWW451 KLAS-KTNX
Flight info
| Callsign | WWW451 |
|---|---|
| Flight time | 0h 35m |
| Altitude | 16000 |
| Route | LOHLA3 JAYSN CENIT ESSAA LEAHI KICHI TPH |
| Aircraft | B736/M-SDE2E3FGHIRWXY/LB1 |
Departure
| Time | 2026-05-05 02:04 |
|---|---|
| Airport | Harry Reid International Airport (KLAS) |
Arrival
| Time | 2026-05-05 02:39 |
|---|---|
| Airport | Tonopah Test Range Airport (KTNX) |
| Time | Latitude | Longitude | Altitude | Speed | Heading |
|---|---|---|---|---|---|
| 2026-05-05 01:46 | 36.09194 | -115.16472 | 2140 ft | 0 kts | 238° |
| 2026-05-05 01:57 | 36.09187 | -115.16484 | 2142 ft | 2 kts | 230° |
| 2026-05-05 01:58 | 36.09162 | -115.16492 | 2143 ft | 6 kts | 169° |
| 2026-05-05 01:58 | 36.09130 | -115.16451 | 2140 ft | 2 kts | 99° |
| 2026-05-05 01:58 | 36.09130 | -115.16450 | 2140 ft | 1 kts | 99° |
| 2026-05-05 01:58 | 36.09129 | -115.16441 | 2140 ft | 1 kts | 100° |
| 2026-05-05 01:59 | 36.09127 | -115.16431 | 2139 ft | 3 kts | 102° |
| 2026-05-05 01:59 | 36.09128 | -115.16377 | 2135 ft | 10 kts | 67° |
| 2026-05-05 01:59 | 36.09201 | -115.16322 | 2132 ft | 15 kts | 25° |
| 2026-05-05 01:59 | 36.09312 | -115.16259 | 2128 ft | 19 kts | 25° |
| 2026-05-05 02:00 | 36.09429 | -115.16180 | 2125 ft | 18 kts | 55° |
| 2026-05-05 02:00 | 36.09518 | -115.16051 | 2114 ft | 23 kts | 25° |
| 2026-05-05 02:00 | 36.09668 | -115.15965 | 2110 ft | 23 kts | 25° |
| 2026-05-05 02:00 | 36.09813 | -115.15882 | 2107 ft | 23 kts | 25° |
| 2026-05-05 02:01 | 36.09936 | -115.15811 | 2105 ft | 13 kts | 24° |
| 2026-05-05 02:01 | 36.09978 | -115.15773 | 2103 ft | 4 kts | 62° |
| 2026-05-05 02:01 | 36.09982 | -115.15756 | 2103 ft | 1 kts | 79° |
| 2026-05-05 02:02 | 36.09982 | -115.15755 | 2103 ft | 0 kts | 80° |
| 2026-05-05 02:02 | 36.09982 | -115.15751 | 2102 ft | 2 kts | 94° |
| 2026-05-05 02:03 | 36.09952 | -115.15680 | 2100 ft | 14 kts | 144° |
| 2026-05-05 02:03 | 36.09836 | -115.15719 | 2101 ft | 33 kts | 205° |
| 2026-05-05 02:03 | 36.09427 | -115.15954 | 2107 ft | 94 kts | 205° |
| 2026-05-05 02:03 | 36.08700 | -115.16376 | 2178 ft | 130 kts | 206° |
| 2026-05-05 02:04 | 36.07858 | -115.16870 | 2575 ft | 139 kts | 208° |
| 2026-05-05 02:04 | 36.06937 | -115.17414 | 2939 ft | 153 kts | 211° |
| 2026-05-05 02:04 | 36.06253 | -115.18332 | 3514 ft | 149 kts | 246° |
| 2026-05-05 02:04 | 36.06158 | -115.19627 | 3984 ft | 165 kts | 276° |
| 2026-05-05 02:05 | 36.06438 | -115.21121 | 4357 ft | 193 kts | 277° |
| 2026-05-05 02:05 | 36.06731 | -115.22863 | 4589 ft | 220 kts | 277° |
| 2026-05-05 02:05 | 36.07056 | -115.24785 | 5005 ft | 233 kts | 278° |
| 2026-05-05 02:05 | 36.07674 | -115.26678 | 5620 ft | 249 kts | 300° |
| 2026-05-05 02:06 | 36.08989 | -115.28252 | 6145 ft | 276 kts | 320° |
| 2026-05-05 02:06 | 36.10812 | -115.29168 | 6998 ft | 290 kts | 343° |
| 2026-05-05 02:06 | 36.12802 | -115.29685 | 7892 ft | 296 kts | 345° |
| 2026-05-05 02:06 | 36.14855 | -115.30217 | 8728 ft | 306 kts | 345° |
| 2026-05-05 02:07 | 36.16845 | -115.31022 | 9715 ft | 305 kts | 326° |
| 2026-05-05 02:07 | 36.18387 | -115.32778 | 10570 ft | 306 kts | 301° |
| 2026-05-05 02:07 | 36.19378 | -115.35191 | 10905 ft | 328 kts | 289° |
| 2026-05-05 02:07 | 36.20270 | -115.37907 | 11289 ft | 349 kts | 288° |
| 2026-05-05 02:08 | 36.21182 | -115.40729 | 12143 ft | 355 kts | 287° |
| 2026-05-05 02:08 | 36.22110 | -115.43572 | 13167 ft | 356 kts | 287° |
| 2026-05-05 02:08 | 36.23066 | -115.46439 | 13996 ft | 363 kts | 288° |
| 2026-05-05 02:08 | 36.24036 | -115.49343 | 14902 ft | 366 kts | 288° |
| 2026-05-05 02:09 | 36.25016 | -115.52267 | 15613 ft | 369 kts | 288° |
| 2026-05-05 02:09 | 36.26056 | -115.55187 | 15957 ft | 374 kts | 294° |
| 2026-05-05 02:09 | 36.27558 | -115.57922 | 16001 ft | 396 kts | 304° |
| 2026-05-05 02:09 | 36.29268 | -115.60647 | 15968 ft | 404 kts | 306° |
| 2026-05-05 02:10 | 36.31012 | -115.63356 | 15983 ft | 405 kts | 306° |
| 2026-05-05 02:10 | 36.32787 | -115.66114 | 16008 ft | 402 kts | 303° |
| 2026-05-05 02:10 | 36.34494 | -115.68802 | 15974 ft | 400 kts | 303° |
| 2026-05-05 02:10 | 36.36197 | -115.71518 | 15981 ft | 398 kts | 302° |
| 2026-05-05 02:11 | 36.37895 | -115.74254 | 15957 ft | 399 kts | 303° |
| 2026-05-05 02:11 | 36.39572 | -115.76986 | 15973 ft | 398 kts | 303° |
| 2026-05-05 02:11 | 36.41257 | -115.79733 | 15954 ft | 400 kts | 303° |
| 2026-05-05 02:11 | 36.42929 | -115.82449 | 15975 ft | 401 kts | 303° |
| 2026-05-05 02:12 | 36.44651 | -115.85242 | 15964 ft | 403 kts | 304° |
| 2026-05-05 02:12 | 36.48037 | -115.90762 | 15948 ft | 405 kts | 305° |
| 2026-05-05 02:12 | 36.49741 | -115.93546 | 15949 ft | 404 kts | 304° |
| 2026-05-05 02:13 | 36.51438 | -115.96317 | 15962 ft | 402 kts | 302° |
| 2026-05-05 02:13 | 36.53128 | -115.99077 | 15932 ft | 401 kts | 304° |
| 2026-05-05 02:13 | 36.54822 | -116.01848 | 15935 ft | 400 kts | 304° |
| 2026-05-05 02:13 | 36.56466 | -116.04630 | 15921 ft | 399 kts | 298° |
| 2026-05-05 02:14 | 36.57613 | -116.07726 | 15946 ft | 391 kts | 286° |
| 2026-05-05 02:14 | 36.58529 | -116.10912 | 15928 ft | 390 kts | 285° |
| 2026-05-05 02:14 | 36.59438 | -116.14096 | 15912 ft | 390 kts | 285° |
| 2026-05-05 02:14 | 36.60359 | -116.17276 | 15911 ft | 391 kts | 285° |
| 2026-05-05 02:15 | 36.61284 | -116.20417 | 15916 ft | 392 kts | 286° |
| 2026-05-05 02:15 | 36.62244 | -116.23640 | 15910 ft | 392 kts | 286° |
| 2026-05-05 02:15 | 36.63186 | -116.26785 | 15905 ft | 393 kts | 288° |
| 2026-05-05 02:15 | 36.64148 | -116.29980 | 15910 ft | 395 kts | 288° |
| 2026-05-05 02:16 | 36.65110 | -116.33190 | 15911 ft | 396 kts | 288° |
| 2026-05-05 02:16 | 36.66074 | -116.36407 | 15918 ft | 397 kts | 288° |
| 2026-05-05 02:16 | 36.67039 | -116.39633 | 15897 ft | 397 kts | 288° |
| 2026-05-05 02:16 | 36.68122 | -116.42802 | 15884 ft | 399 kts | 295° |
| 2026-05-05 02:17 | 36.69628 | -116.45719 | 15906 ft | 401 kts | 304° |
| 2026-05-05 02:17 | 36.71501 | -116.48307 | 15928 ft | 403 kts | 312° |
| 2026-05-05 02:17 | 36.73481 | -116.50796 | 15895 ft | 405 kts | 311° |
| 2026-05-05 02:17 | 36.75472 | -116.53283 | 15899 ft | 406 kts | 312° |
| 2026-05-05 02:18 | 36.77468 | -116.55779 | 15897 ft | 406 kts | 312° |
| 2026-05-05 02:18 | 36.79459 | -116.58284 | 15903 ft | 407 kts | 312° |
| 2026-05-05 02:18 | 36.81447 | -116.60803 | 15897 ft | 407 kts | 312° |
| 2026-05-05 02:18 | 36.83427 | -116.63325 | 15889 ft | 407 kts | 312° |
| 2026-05-05 02:19 | 36.85404 | -116.65853 | 15886 ft | 406 kts | 311° |
| 2026-05-05 02:19 | 36.87382 | -116.68378 | 15887 ft | 406 kts | 313° |
| 2026-05-05 02:19 | 36.89357 | -116.70899 | 15906 ft | 405 kts | 311° |
| 2026-05-05 02:19 | 36.91322 | -116.73413 | 15900 ft | 404 kts | 311° |
| 2026-05-05 02:20 | 36.93285 | -116.75927 | 15888 ft | 403 kts | 312° |
| 2026-05-05 02:20 | 36.95243 | -116.78438 | 15879 ft | 403 kts | 311° |
| 2026-05-05 02:20 | 36.97196 | -116.80946 | 15892 ft | 401 kts | 313° |
| 2026-05-05 02:20 | 36.99145 | -116.83449 | 15896 ft | 402 kts | 313° |
| 2026-05-05 02:21 | 37.01097 | -116.85953 | 15893 ft | 402 kts | 312° |
| 2026-05-05 02:21 | 37.03028 | -116.88437 | 15895 ft | 403 kts | 312° |
| 2026-05-05 02:21 | 37.04983 | -116.90956 | 15891 ft | 404 kts | 313° |
| 2026-05-05 02:21 | 37.07010 | -116.93388 | 15887 ft | 404 kts | 319° |
| 2026-05-05 02:22 | 37.09326 | -116.95373 | 15901 ft | 404 kts | 327° |
| 2026-05-05 02:22 | 37.11743 | -116.97176 | 15893 ft | 403 kts | 328° |
| 2026-05-05 02:22 | 37.14160 | -116.98959 | 15896 ft | 403 kts | 329° |
| 2026-05-05 02:22 | 37.16570 | -117.00746 | 15891 ft | 402 kts | 328° |
| 2026-05-05 02:23 | 37.18976 | -117.02546 | 15892 ft | 402 kts | 328° |
| 2026-05-05 02:23 | 37.21378 | -117.04355 | 15895 ft | 402 kts | 328° |
| 2026-05-05 02:23 | 37.23774 | -117.06170 | 15902 ft | 402 kts | 328° |
| 2026-05-05 02:23 | 37.26165 | -117.07988 | 15898 ft | 402 kts | 328° |
| 2026-05-05 02:24 | 37.28560 | -117.09813 | 15899 ft | 402 kts | 328° |
| 2026-05-05 02:24 | 37.30956 | -117.11639 | 15901 ft | 402 kts | 328° |
| 2026-05-05 02:24 | 37.33313 | -117.13437 | 15903 ft | 402 kts | 328° |
| 2026-05-05 02:24 | 37.35706 | -117.15264 | 15904 ft | 402 kts | 328° |
| 2026-05-05 02:25 | 37.38097 | -117.17090 | 15912 ft | 401 kts | 328° |
| 2026-05-05 02:25 | 37.40482 | -117.18919 | 15918 ft | 401 kts | 329° |
| 2026-05-05 02:25 | 37.42871 | -117.20744 | 15912 ft | 402 kts | 329° |
| 2026-05-05 02:25 | 37.45269 | -117.22565 | 15914 ft | 401 kts | 330° |
| 2026-05-05 02:26 | 37.47833 | -117.23945 | 15905 ft | 401 kts | 345° |
| 2026-05-05 02:26 | 37.50579 | -117.24525 | 15917 ft | 401 kts | 357° |
| 2026-05-05 02:26 | 37.53365 | -117.24368 | 15922 ft | 401 kts | 6° |
| 2026-05-05 02:26 | 37.56139 | -117.23967 | 15918 ft | 401 kts | 7° |
| 2026-05-05 02:27 | 37.58887 | -117.23549 | 15909 ft | 401 kts | 7° |
| 2026-05-05 02:27 | 37.61661 | -117.23133 | 15919 ft | 401 kts | 7° |
| 2026-05-05 02:27 | 37.64433 | -117.22730 | 15914 ft | 400 kts | 7° |
| 2026-05-05 02:27 | 37.67191 | -117.22341 | 15912 ft | 399 kts | 7° |
| 2026-05-05 02:28 | 37.69945 | -117.21961 | 15909 ft | 398 kts | 7° |
| 2026-05-05 02:28 | 37.72698 | -117.21584 | 15914 ft | 397 kts | 6° |
| 2026-05-05 02:28 | 37.75448 | -117.21210 | 15856 ft | 399 kts | 6° |
| 2026-05-05 02:28 | 37.78212 | -117.20833 | 15784 ft | 398 kts | 6° |
| 2026-05-05 02:29 | 37.80963 | -117.20457 | 15772 ft | 397 kts | 6° |
| 2026-05-05 02:29 | 37.83676 | -117.20086 | 15758 ft | 387 kts | 6° |
| 2026-05-05 02:29 | 37.86312 | -117.19725 | 15751 ft | 380 kts | 6° |
| 2026-05-05 02:29 | 37.88872 | -117.19375 | 15752 ft | 360 kts | 7° |
| 2026-05-05 02:30 | 37.91286 | -117.19045 | 15756 ft | 339 kts | 7° |
| 2026-05-05 02:30 | 37.93574 | -117.18731 | 15731 ft | 322 kts | 7° |
| 2026-05-05 02:30 | 37.95683 | -117.18028 | 15622 ft | 307 kts | 28° |
| 2026-05-05 02:30 | 37.97335 | -117.16435 | 15668 ft | 292 kts | 47° |
| 2026-05-05 02:31 | 37.98517 | -117.14315 | 14955 ft | 302 kts | 62° |
| 2026-05-05 02:31 | 37.99517 | -117.11921 | 14051 ft | 319 kts | 62° |
| 2026-05-05 02:31 | 38.00571 | -117.09368 | 13074 ft | 333 kts | 62° |
| 2026-05-05 02:31 | 38.01681 | -117.06734 | 12295 ft | 340 kts | 62° |
| 2026-05-05 02:32 | 38.02731 | -117.04116 | 12048 ft | 321 kts | 71° |
| 2026-05-05 02:32 | 38.02979 | -117.01418 | 11766 ft | 300 kts | 99° |
| 2026-05-05 02:32 | 38.02514 | -116.98906 | 11452 ft | 285 kts | 107° |
| 2026-05-05 02:32 | 38.01990 | -116.96537 | 11145 ft | 274 kts | 108° |
| 2026-05-05 02:33 | 38.01512 | -116.94285 | 10938 ft | 256 kts | 106° |
| 2026-05-05 02:33 | 38.01073 | -116.92148 | 10380 ft | 252 kts | 107° |
| 2026-05-05 02:33 | 38.00586 | -116.90074 | 10066 ft | 235 kts | 118° |
| 2026-05-05 02:33 | 37.99590 | -116.88671 | 9844 ft | 202 kts | 157° |
| 2026-05-05 02:34 | 37.98385 | -116.88015 | 9586 ft | 181 kts | 158° |
| 2026-05-05 02:34 | 37.97237 | -116.87357 | 8971 ft | 178 kts | 157° |
| 2026-05-05 02:34 | 37.96091 | -116.86715 | 8259 ft | 179 kts | 159° |
| 2026-05-05 02:34 | 37.94992 | -116.86107 | 8025 ft | 168 kts | 159° |
| 2026-05-05 02:35 | 37.93964 | -116.85550 | 7811 ft | 152 kts | 159° |
| 2026-05-05 02:35 | 37.93017 | -116.85044 | 7639 ft | 148 kts | 160° |
| 2026-05-05 02:35 | 37.92101 | -116.84556 | 7478 ft | 142 kts | 160° |
| 2026-05-05 02:35 | 37.91495 | -116.84235 | 7365 ft | 143 kts | 160° |
| 2026-05-05 02:36 | 37.90300 | -116.83601 | 7145 ft | 138 kts | 159° |
| 2026-05-05 02:36 | 37.89410 | -116.83128 | 6987 ft | 137 kts | 159° |
| 2026-05-05 02:36 | 37.88527 | -116.82659 | 6823 ft | 139 kts | 160° |
| 2026-05-05 02:36 | 37.87941 | -116.82356 | 6721 ft | 136 kts | 159° |
| 2026-05-05 02:37 | 37.87052 | -116.81893 | 6567 ft | 141 kts | 160° |
| 2026-05-05 02:37 | 37.86153 | -116.81392 | 6392 ft | 140 kts | 157° |
| 2026-05-05 02:37 | 37.85279 | -116.80924 | 6275 ft | 135 kts | 159° |
| 2026-05-05 02:37 | 37.84385 | -116.80464 | 6081 ft | 146 kts | 159° |
| 2026-05-05 02:38 | 37.83450 | -116.79969 | 5956 ft | 143 kts | 158° |
| 2026-05-05 02:38 | 37.82548 | -116.79480 | 5786 ft | 140 kts | 157° |
| 2026-05-05 02:38 | 37.81662 | -116.79014 | 5619 ft | 135 kts | 158° |
| 2026-05-05 02:38 | 37.80852 | -116.78584 | 5552 ft | 118 kts | 156° |
| 2026-05-05 02:39 | 37.80232 | -116.78254 | 5554 ft | 75 kts | 158° |
| 2026-05-05 02:39 | 37.79889 | -116.78073 | 5553 ft | 32 kts | 157° |
| 2026-05-05 02:39 | 37.79719 | -116.77983 | 5553 ft | 24 kts | 157° |
| 2026-05-05 02:39 | 37.79654 | -116.77891 | 5553 ft | 14 kts | 71° |
| 2026-05-05 02:40 | 37.79691 | -116.77782 | 5553 ft | 13 kts | 66° |
| 2026-05-05 02:40 | 37.79726 | -116.77676 | 5555 ft | 13 kts | 69° |
| 2026-05-05 02:40 | 37.79736 | -116.77639 | 5554 ft | 0 kts | 71° |
| 2026-05-05 02:40 | 37.79740 | -116.77621 | 5554 ft | 6 kts | 77° |
| 2026-05-05 02:41 | 37.79687 | -116.77550 | 5556 ft | 20 kts | 159° |
| 2026-05-05 02:41 | 37.79540 | -116.77473 | 5554 ft | 23 kts | 157° |
| 2026-05-05 02:41 | 37.79395 | -116.77396 | 5555 ft | 22 kts | 158° |
| 2026-05-05 02:41 | 37.79254 | -116.77321 | 5554 ft | 22 kts | 157° |
| 2026-05-05 02:42 | 37.79118 | -116.77249 | 5555 ft | 21 kts | 158° |
| 2026-05-05 02:42 | 37.78985 | -116.77178 | 5555 ft | 20 kts | 157° |
| 2026-05-05 02:42 | 37.78856 | -116.77111 | 5552 ft | 20 kts | 158° |
| 2026-05-05 02:42 | 37.78730 | -116.77043 | 5553 ft | 19 kts | 158° |
| 2026-05-05 02:43 | 37.78608 | -116.76981 | 5553 ft | 19 kts | 157° |
| 2026-05-05 02:43 | 37.78509 | -116.76903 | 5555 ft | 16 kts | 107° |
| 2026-05-05 02:43 | 37.78503 | -116.76791 | 5555 ft | 14 kts | 166° |
| 2026-05-05 02:43 | 37.78481 | -116.76722 | 5555 ft | 4 kts | 65° |
| 2026-05-05 02:44 | 37.78484 | -116.76714 | 5555 ft | 0 kts | 65° |